sensor_id;sensor_type;location;lat;lon;timestamp;P1;durP1;ratioP1;P2;durP2;ratioP2
9940;SDS011;5009;50.656;7.188;2022-07-23T00:02:25;13.68;;;12.48;;
9940;SDS011;5009;50.656;7.188;2022-07-23T00:04:50;14.60;;;13.27;;
9940;SDS011;5009;50.656;7.188;2022-07-23T00:07:16;14.63;;;13.23;;
9940;SDS011;5009;50.656;7.188;2022-07-23T00:09:42;15.10;;;13.65;;
9940;SDS011;5009;50.656;7.188;2022-07-23T00:12:07;14.88;;;13.30;;
9940;SDS011;5009;50.656;7.188;2022-07-23T00:14:33;15.57;;;14.27;;
9940;SDS011;5009;50.656;7.188;2022-07-23T00:16:59;15.90;;;13.90;;
9940;SDS011;5009;50.656;7.188;2022-07-23T00:19:24;14.48;;;13.13;;
9940;SDS011;5009;50.656;7.188;2022-07-23T00:21:50;14.07;;;12.65;;
9940;SDS011;5009;50.656;7.188;2022-07-23T00:24:15;13.77;;;12.48;;
9940;SDS011;5009;50.656;7.188;2022-07-23T00:26:41;16.38;;;12.40;;
9940;SDS011;5009;50.656;7.188;2022-07-23T00:29:06;14.13;;;12.82;;
9940;SDS011;5009;50.656;7.188;2022-07-23T00:31:32;14.30;;;12.98;;
9940;SDS011;5009;50.656;7.188;2022-07-23T00:33:57;17.48;;;15.70;;
9940;SDS011;5009;50.656;7.188;2022-07-23T00:36:25;18.92;;;17.08;;
9940;SDS011;5009;50.656;7.188;2022-07-23T00:38:52;18.67;;;16.65;;
9940;SDS011;5009;50.656;7.188;2022-07-23T00:41:17;18.92;;;17.00;;
9940;SDS011;5009;50.656;7.188;2022-07-23T00:43:43;17.98;;;16.38;;
9940;SDS011;5009;50.656;7.188;2022-07-23T00:46:08;16.48;;;14.77;;
9940;SDS011;5009;50.656;7.188;2022-07-23T00:48:34;17.45;;;15.73;;
9940;SDS011;5009;50.656;7.188;2022-07-23T00:50:59;16.55;;;15.05;;
9940;SDS011;5009;50.656;7.188;2022-07-23T00:53:25;17.65;;;15.95;;
9940;SDS011;5009;50.656;7.188;2022-07-23T00:55:51;18.60;;;16.55;;
9940;SDS011;5009;50.656;7.188;2022-07-23T00:58:17;17.42;;;15.73;;
9940;SDS011;5009;50.656;7.188;2022-07-23T01:00:43;17.08;;;15.57;;
9940;SDS011;5009;50.656;7.188;2022-07-23T01:03:09;16.23;;;14.73;;
9940;SDS011;5009;50.656;7.188;2022-07-23T01:05:35;17.83;;;16.10;;
9940;SDS011;5009;50.656;7.188;2022-07-23T01:08:01;17.98;;;16.27;;
9940;SDS011;5009;50.656;7.188;2022-07-23T01:10:26;18.60;;;16.90;;
9940;SDS011;5009;50.656;7.188;2022-07-23T01:13:02;19.65;;;17.80;;
9940;SDS011;5009;50.656;7.188;2022-07-23T01:15:29;20.13;;;18.15;;
9940;SDS011;5009;50.656;7.188;2022-07-23T01:17:55;18.05;;;16.30;;
9940;SDS011;5009;50.656;7.188;2022-07-23T01:20:21;18.25;;;16.38;;
9940;SDS011;5009;50.656;7.188;2022-07-23T01:22:47;17.65;;;16.05;;
9940;SDS011;5009;50.656;7.188;2022-07-23T01:25:13;18.33;;;16.58;;
9940;SDS011;5009;50.656;7.188;2022-07-23T01:27:39;19.42;;;17.52;;
9940;SDS011;5009;50.656;7.188;2022-07-23T01:30:05;19.77;;;17.67;;
9940;SDS011;5009;50.656;7.188;2022-07-23T01:32:32;20.27;;;18.33;;
9940;SDS011;5009;50.656;7.188;2022-07-23T01:34:58;20.90;;;18.88;;
9940;SDS011;5009;50.656;7.188;2022-07-23T01:37:23;20.15;;;18.23;;
9940;SDS011;5009;50.656;7.188;2022-07-23T01:39:49;19.88;;;17.88;;
9940;SDS011;5009;50.656;7.188;2022-07-23T01:42:14;20.13;;;18.02;;
9940;SDS011;5009;50.656;7.188;2022-07-23T01:44:40;21.00;;;18.83;;
9940;SDS011;5009;50.656;7.188;2022-07-23T01:47:05;20.90;;;18.83;;
9940;SDS011;5009;50.656;7.188;2022-07-23T01:49:31;21.75;;;19.55;;
9940;SDS011;5009;50.656;7.188;2022-07-23T01:51:56;20.10;;;18.20;;
9940;SDS011;5009;50.656;7.188;2022-07-23T01:54:29;19.65;;;17.75;;
9940;SDS011;5009;50.656;7.188;2022-07-23T01:56:56;19.83;;;18.02;;
9940;SDS011;5009;50.656;7.188;2022-07-23T01:59:23;21.08;;;18.98;;
9940;SDS011;5009;50.656;7.188;2022-07-23T02:01:49;20.55;;;18.58;;
9940;SDS011;5009;50.656;7.188;2022-07-23T02:04:25;18.50;;;16.63;;
9940;SDS011;5009;50.656;7.188;2022-07-23T02:06:51;18.88;;;16.83;;
9940;SDS011;5009;50.656;7.188;2022-07-23T02:09:17;18.45;;;16.38;;
9940;SDS011;5009;50.656;7.188;2022-07-23T02:11:43;18.38;;;16.48;;
9940;SDS011;5009;50.656;7.188;2022-07-23T02:14:09;19.08;;;17.27;;
9940;SDS011;5009;50.656;7.188;2022-07-23T02:16:34;17.75;;;16.23;;
9940;SDS011;5009;50.656;7.188;2022-07-23T02:19:00;20.33;;;17.15;;
9940;SDS011;5009;50.656;7.188;2022-07-23T02:21:26;19.25;;;17.52;;
9940;SDS011;5009;50.656;7.188;2022-07-23T02:23:51;19.83;;;17.77;;
9940;SDS011;5009;50.656;7.188;2022-07-23T02:26:17;19.80;;;17.88;;
9940;SDS011;5009;50.656;7.188;2022-07-23T02:28:42;20.58;;;18.48;;
9940;SDS011;5009;50.656;7.188;2022-07-23T02:31:08;21.77;;;19.67;;
9940;SDS011;5009;50.656;7.188;2022-07-23T02:33:33;21.95;;;19.85;;
9940;SDS011;5009;50.656;7.188;2022-07-23T02:35:59;22.88;;;20.50;;
9940;SDS011;5009;50.656;7.188;2022-07-23T02:38:25;21.00;;;18.95;;
9940;SDS011;5009;50.656;7.188;2022-07-23T02:40:50;22.38;;;20.23;;
9940;SDS011;5009;50.656;7.188;2022-07-23T02:43:16;22.42;;;20.38;;
9940;SDS011;5009;50.656;7.188;2022-07-23T02:45:42;21.70;;;19.63;;
9940;SDS011;5009;50.656;7.188;2022-07-23T02:48:07;22.17;;;19.90;;
9940;SDS011;5009;50.656;7.188;2022-07-23T02:50:33;22.17;;;19.45;;
9940;SDS011;5009;50.656;7.188;2022-07-23T02:52:59;20.38;;;18.30;;
9940;SDS011;5009;50.656;7.188;2022-07-23T02:55:24;20.58;;;18.77;;
9940;SDS011;5009;50.656;7.188;2022-07-23T02:57:50;19.10;;;17.02;;
9940;SDS011;5009;50.656;7.188;2022-07-23T03:00:16;18.30;;;16.50;;
9940;SDS011;5009;50.656;7.188;2022-07-23T03:02:41;19.52;;;17.83;;
9940;SDS011;5009;50.656;7.188;2022-07-23T03:05:07;19.52;;;17.50;;
9940;SDS011;5009;50.656;7.188;2022-07-23T03:07:33;20.20;;;18.25;;
9940;SDS011;5009;50.656;7.188;2022-07-23T03:09:59;19.92;;;17.42;;
9940;SDS011;5009;50.656;7.188;2022-07-23T03:12:24;19.13;;;17.33;;
9940;SDS011;5009;50.656;7.188;2022-07-23T03:14:50;18.20;;;16.50;;
9940;SDS011;5009;50.656;7.188;2022-07-23T03:17:16;18.70;;;16.80;;
9940;SDS011;5009;50.656;7.188;2022-07-23T03:19:42;19.67;;;17.75;;
9940;SDS011;5009;50.656;7.188;2022-07-23T03:22:08;19.27;;;17.48;;
9940;SDS011;5009;50.656;7.188;2022-07-23T03:24:33;20.25;;;18.23;;
9940;SDS011;5009;50.656;7.188;2022-07-23T03:27:18;19.35;;;17.60;;
9940;SDS011;5009;50.656;7.188;2022-07-23T03:29:43;19.77;;;17.88;;
9940;SDS011;5009;50.656;7.188;2022-07-23T03:32:09;18.92;;;17.02;;
9940;SDS011;5009;50.656;7.188;2022-07-23T03:34:34;19.50;;;17.67;;
9940;SDS011;5009;50.656;7.188;2022-07-23T03:37:00;18.63;;;16.80;;
9940;SDS011;5009;50.656;7.188;2022-07-23T03:39:26;19.63;;;16.70;;
9940;SDS011;5009;50.656;7.188;2022-07-23T03:41:52;23.60;;;18.38;;
9940;SDS011;5009;50.656;7.188;2022-07-23T03:44:17;19.52;;;17.52;;
9940;SDS011;5009;50.656;7.188;2022-07-23T03:46:43;19.83;;;17.83;;
9940;SDS011;5009;50.656;7.188;2022-07-23T03:49:08;21.15;;;19.17;;
9940;SDS011;5009;50.656;7.188;2022-07-23T03:51:34;20.05;;;18.20;;
9940;SDS011;5009;50.656;7.188;2022-07-23T03:53:59;20.67;;;18.42;;
9940;SDS011;5009;50.656;7.188;2022-07-23T03:56:25;20.70;;;18.73;;
9940;SDS011;5009;50.656;7.188;2022-07-23T03:58:51;22.60;;;20.25;;
9940;SDS011;5009;50.656;7.188;2022-07-23T04:01:17;20.17;;;18.17;;
9940;SDS011;5009;50.656;7.188;2022-07-23T04:03:42;21.35;;;19.15;;
9940;SDS011;5009;50.656;7.188;2022-07-23T04:06:08;21.55;;;19.45;;
9940;SDS011;5009;50.656;7.188;2022-07-23T04:08:33;19.92;;;17.90;;
9940;SDS011;5009;50.656;7.188;2022-07-23T04:10:59;20.98;;;19.02;;
9940;SDS011;5009;50.656;7.188;2022-07-23T04:13:24;20.05;;;18.05;;
9940;SDS011;5009;50.656;7.188;2022-07-23T04:15:50;21.00;;;18.83;;
9940;SDS011;5009;50.656;7.188;2022-07-23T04:18:16;21.58;;;19.45;;
9940;SDS011;5009;50.656;7.188;2022-07-23T04:20:43;21.73;;;19.50;;
9940;SDS011;5009;50.656;7.188;2022-07-23T04:23:09;20.50;;;18.58;;
9940;SDS011;5009;50.656;7.188;2022-07-23T04:25:35;21.35;;;19.00;;
9940;SDS011;5009;50.656;7.188;2022-07-23T04:28:01;20.25;;;18.15;;
9940;SDS011;5009;50.656;7.188;2022-07-23T04:30:26;20.17;;;18.17;;
9940;SDS011;5009;50.656;7.188;2022-07-23T04:32:52;19.90;;;17.63;;
9940;SDS011;5009;50.656;7.188;2022-07-23T04:35:18;19.48;;;17.52;;
9940;SDS011;5009;50.656;7.188;2022-07-23T04:37:44;19.85;;;17.90;;
9940;SDS011;5009;50.656;7.188;2022-07-23T04:40:10;19.08;;;17.23;;
9940;SDS011;5009;50.656;7.188;2022-07-23T04:42:36;19.13;;;17.23;;
9940;SDS011;5009;50.656;7.188;2022-07-23T04:45:02;18.17;;;16.38;;
9940;SDS011;5009;50.656;7.188;2022-07-23T04:47:29;18.80;;;16.88;;
9940;SDS011;5009;50.656;7.188;2022-07-23T04:49:55;17.45;;;15.60;;
9940;SDS011;5009;50.656;7.188;2022-07-23T04:52:21;17.88;;;15.77;;
9940;SDS011;5009;50.656;7.188;2022-07-23T04:54:47;17.17;;;15.48;;
9940;SDS011;5009;50.656;7.188;2022-07-23T04:57:13;16.77;;;15.27;;
9940;SDS011;5009;50.656;7.188;2022-07-23T04:59:38;16.73;;;15.23;;
9940;SDS011;5009;50.656;7.188;2022-07-23T05:02:04;20.70;;;17.45;;
9940;SDS011;5009;50.656;7.188;2022-07-23T05:04:29;18.95;;;17.00;;
9940;SDS011;5009;50.656;7.188;2022-07-23T05:06:56;16.55;;;15.00;;
9940;SDS011;5009;50.656;7.188;2022-07-23T05:09:22;18.15;;;16.45;;
9940;SDS011;5009;50.656;7.188;2022-07-23T05:11:48;17.30;;;15.60;;
9940;SDS011;5009;50.656;7.188;2022-07-23T05:14:13;15.90;;;14.30;;
9940;SDS011;5009;50.656;7.188;2022-07-23T05:16:39;16.00;;;14.32;;
9940;SDS011;5009;50.656;7.188;2022-07-23T05:19:05;16.23;;;14.52;;
9940;SDS011;5009;50.656;7.188;2022-07-23T05:21:30;15.70;;;13.60;;
9940;SDS011;5009;50.656;7.188;2022-07-23T05:23:56;13.18;;;11.88;;
9940;SDS011;5009;50.656;7.188;2022-07-23T05:26:22;13.55;;;12.15;;
9940;SDS011;5009;50.656;7.188;2022-07-23T05:28:47;12.70;;;11.50;;
9940;SDS011;5009;50.656;7.188;2022-07-23T05:31:13;13.00;;;11.80;;
9940;SDS011;5009;50.656;7.188;2022-07-23T05:33:39;11.95;;;10.95;;
9940;SDS011;5009;50.656;7.188;2022-07-23T05:36:04;12.02;;;10.82;;
9940;SDS011;5009;50.656;7.188;2022-07-23T05:38:31;13.20;;;11.70;;
9940;SDS011;5009;50.656;7.188;2022-07-23T05:40:57;14.27;;;12.98;;
9940;SDS011;5009;50.656;7.188;2022-07-23T05:43:22;12.23;;;11.13;;
9940;SDS011;5009;50.656;7.188;2022-07-23T05:45:48;13.85;;;12.55;;
9940;SDS011;5009;50.656;7.188;2022-07-23T05:48:14;14.13;;;12.63;;
9940;SDS011;5009;50.656;7.188;2022-07-23T05:50:39;14.45;;;12.98;;
9940;SDS011;5009;50.656;7.188;2022-07-23T05:53:05;13.60;;;12.35;;
9940;SDS011;5009;50.656;7.188;2022-07-23T05:55:31;15.02;;;13.65;;
9940;SDS011;5009;50.656;7.188;2022-07-23T05:57:56;15.35;;;13.77;;
9940;SDS011;5009;50.656;7.188;2022-07-23T06:00:23;17.42;;;15.63;;
9940;SDS011;5009;50.656;7.188;2022-07-23T06:02:49;17.83;;;16.20;;
9940;SDS011;5009;50.656;7.188;2022-07-23T06:05:15;17.55;;;15.75;;
9940;SDS011;5009;50.656;7.188;2022-07-23T06:07:41;17.15;;;15.35;;
9940;SDS011;5009;50.656;7.188;2022-07-23T06:10:07;15.43;;;13.80;;
9940;SDS011;5009;50.656;7.188;2022-07-23T06:12:33;17.23;;;15.63;;
9940;SDS011;5009;50.656;7.188;2022-07-23T06:14:59;16.98;;;15.18;;
9940;SDS011;5009;50.656;7.188;2022-07-23T06:17:25;16.85;;;15.20;;
9940;SDS011;5009;50.656;7.188;2022-07-23T06:19:50;16.95;;;13.75;;
9940;SDS011;5009;50.656;7.188;2022-07-23T06:22:16;15.75;;;14.15;;
9940;SDS011;5009;50.656;7.188;2022-07-23T06:24:42;15.77;;;14.20;;
9940;SDS011;5009;50.656;7.188;2022-07-23T06:27:07;14.40;;;13.00;;
9940;SDS011;5009;50.656;7.188;2022-07-23T06:29:33;14.45;;;13.05;;
9940;SDS011;5009;50.656;7.188;2022-07-23T06:31:58;14.45;;;13.15;;
9940;SDS011;5009;50.656;7.188;2022-07-23T06:34:24;13.80;;;12.40;;
9940;SDS011;5009;50.656;7.188;2022-07-23T06:36:49;13.13;;;11.82;;
9940;SDS011;5009;50.656;7.188;2022-07-23T06:39:15;13.05;;;11.85;;
9940;SDS011;5009;50.656;7.188;2022-07-23T06:41:41;14.73;;;13.30;;
9940;SDS011;5009;50.656;7.188;2022-07-23T06:44:06;15.90;;;14.48;;
9940;SDS011;5009;50.656;7.188;2022-07-23T06:46:32;15.38;;;13.98;;
9940;SDS011;5009;50.656;7.188;2022-07-23T06:48:58;13.73;;;12.52;;
9940;SDS011;5009;50.656;7.188;2022-07-23T06:51:24;14.43;;;13.23;;
9940;SDS011;5009;50.656;7.188;2022-07-23T06:53:50;14.95;;;13.57;;
9940;SDS011;5009;50.656;7.188;2022-07-23T06:56:15;14.60;;;13.30;;
9940;SDS011;5009;50.656;7.188;2022-07-23T06:58:41;13.38;;;11.98;;
9940;SDS011;5009;50.656;7.188;2022-07-23T07:01:06;13.18;;;12.00;;
9940;SDS011;5009;50.656;7.188;2022-07-23T07:03:32;14.30;;;12.80;;
9940;SDS011;5009;50.656;7.188;2022-07-23T07:05:58;14.52;;;13.13;;
9940;SDS011;5009;50.656;7.188;2022-07-23T07:08:23;13.32;;;12.23;;
9940;SDS011;5009;50.656;7.188;2022-07-23T07:10:49;11.98;;;10.88;;
9940;SDS011;5009;50.656;7.188;2022-07-23T07:13:15;13.68;;;12.30;;
9940;SDS011;5009;50.656;7.188;2022-07-23T07:15:40;12.50;;;11.30;;
9940;SDS011;5009;50.656;7.188;2022-07-23T07:18:06;11.35;;;10.35;;
9940;SDS011;5009;50.656;7.188;2022-07-23T07:20:32;11.57;;;10.60;;
9940;SDS011;5009;50.656;7.188;2022-07-23T07:22:58;12.18;;;11.18;;
9940;SDS011;5009;50.656;7.188;2022-07-23T07:25:23;12.55;;;11.45;;
9940;SDS011;5009;50.656;7.188;2022-07-23T07:27:49;13.90;;;12.30;;
9940;SDS011;5009;50.656;7.188;2022-07-23T07:30:14;12.27;;;11.20;;
9940;SDS011;5009;50.656;7.188;2022-07-23T07:32:40;12.25;;;11.20;;
9940;SDS011;5009;50.656;7.188;2022-07-23T07:35:06;13.13;;;11.98;;
9940;SDS011;5009;50.656;7.188;2022-07-23T07:37:33;12.90;;;11.77;;
9940;SDS011;5009;50.656;7.188;2022-07-23T07:39:58;10.90;;;10.00;;
9940;SDS011;5009;50.656;7.188;2022-07-23T07:42:24;10.70;;;9.60;;
9940;SDS011;5009;50.656;7.188;2022-07-23T07:44:50;8.05;;;7.45;;
9940;SDS011;5009;50.656;7.188;2022-07-23T07:47:15;7.63;;;6.95;;
9940;SDS011;5009;50.656;7.188;2022-07-23T07:49:41;6.07;;;5.57;;
9940;SDS011;5009;50.656;7.188;2022-07-23T07:52:07;6.40;;;5.90;;
9940;SDS011;5009;50.656;7.188;2022-07-23T07:54:33;6.68;;;6.18;;
9940;SDS011;5009;50.656;7.188;2022-07-23T07:56:59;6.35;;;5.75;;
9940;SDS011;5009;50.656;7.188;2022-07-23T07:59:24;5.65;;;5.15;;
9940;SDS011;5009;50.656;7.188;2022-07-23T08:01:50;6.32;;;5.82;;
9940;SDS011;5009;50.656;7.188;2022-07-23T08:04:16;6.72;;;6.13;;
9940;SDS011;5009;50.656;7.188;2022-07-23T08:06:41;6.82;;;6.18;;
9940;SDS011;5009;50.656;7.188;2022-07-23T08:09:07;7.45;;;6.75;;
9940;SDS011;5009;50.656;7.188;2022-07-23T08:11:32;6.30;;;5.80;;
9940;SDS011;5009;50.656;7.188;2022-07-23T08:13:58;7.97;;;6.32;;
9940;SDS011;5009;50.656;7.188;2022-07-23T08:16:23;6.90;;;6.22;;
9940;SDS011;5009;50.656;7.188;2022-07-23T08:18:49;7.03;;;6.32;;
9940;SDS011;5009;50.656;7.188;2022-07-23T08:21:15;7.15;;;6.55;;
9940;SDS011;5009;50.656;7.188;2022-07-23T08:23:40;9.27;;;7.13;;
9940;SDS011;5009;50.656;7.188;2022-07-23T08:26:06;7.82;;;6.95;;
9940;SDS011;5009;50.656;7.188;2022-07-23T08:28:32;7.10;;;5.93;;
9940;SDS011;5009;50.656;7.188;2022-07-23T08:30:58;7.82;;;7.10;;
9940;SDS011;5009;50.656;7.188;2022-07-23T08:33:24;7.85;;;7.05;;
9940;SDS011;5009;50.656;7.188;2022-07-23T08:35:50;6.40;;;5.80;;
9940;SDS011;5009;50.656;7.188;2022-07-23T08:38:18;6.75;;;6.15;;
9940;SDS011;5009;50.656;7.188;2022-07-23T08:40:47;6.47;;;5.97;;
9940;SDS011;5009;50.656;7.188;2022-07-23T08:43:18;8.35;;;6.45;;
9940;SDS011;5009;50.656;7.188;2022-07-23T08:45:46;7.93;;;6.80;;
9940;SDS011;5009;50.656;7.188;2022-07-23T08:48:16;8.15;;;7.35;;
9940;SDS011;5009;50.656;7.188;2022-07-23T08:50:46;7.20;;;6.50;;
9940;SDS011;5009;50.656;7.188;2022-07-23T08:53:17;8.30;;;6.65;;
9940;SDS011;5009;50.656;7.188;2022-07-23T08:55:44;6.93;;;6.22;;
9940;SDS011;5009;50.656;7.188;2022-07-23T08:58:14;7.25;;;6.40;;
9940;SDS011;5009;50.656;7.188;2022-07-23T09:00:40;7.22;;;6.55;;
9940;SDS011;5009;50.656;7.188;2022-07-23T09:03:07;7.70;;;6.15;;
9940;SDS011;5009;50.656;7.188;2022-07-23T09:05:32;6.03;;;5.47;;
9940;SDS011;5009;50.656;7.188;2022-07-23T09:08:08;6.53;;;5.93;;
9940;SDS011;5009;50.656;7.188;2022-07-23T09:15:51;6.60;;;5.68;;
9940;SDS011;5009;50.656;7.188;2022-07-23T09:18:18;6.57;;;6.03;;
9940;SDS011;5009;50.656;7.188;2022-07-23T09:20:44;7.57;;;6.90;;
9940;SDS011;5009;50.656;7.188;2022-07-23T09:23:09;8.63;;;7.60;;
9940;SDS011;5009;50.656;7.188;2022-07-23T09:25:35;8.13;;;7.43;;
9940;SDS011;5009;50.656;7.188;2022-07-23T09:28:01;9.85;;;8.75;;
9940;SDS011;5009;50.656;7.188;2022-07-23T09:30:32;9.13;;;8.25;;
9940;SDS011;5009;50.656;7.188;2022-07-23T09:33:09;9.18;;;7.85;;
9940;SDS011;5009;50.656;7.188;2022-07-23T09:38:19;8.20;;;6.93;;
9940;SDS011;5009;50.656;7.188;2022-07-23T09:40:46;8.48;;;7.47;;
9940;SDS011;5009;50.656;7.188;2022-07-23T09:43:29;8.40;;;7.57;;
9940;SDS011;5009;50.656;7.188;2022-07-23T09:46:06;9.10;;;8.20;;
9940;SDS011;5009;50.656;7.188;2022-07-23T09:48:46;8.95;;;7.82;;
9940;SDS011;5009;50.656;7.188;2022-07-23T09:51:12;9.35;;;7.63;;
9940;SDS011;5009;50.656;7.188;2022-07-23T09:53:48;7.35;;;6.65;;
9940;SDS011;5009;50.656;7.188;2022-07-23T09:56:14;7.72;;;7.03;;
9940;SDS011;5009;50.656;7.188;2022-07-23T09:58:40;7.18;;;6.50;;
9940;SDS011;5009;50.656;7.188;2022-07-23T10:01:12;7.55;;;6.20;;
9940;SDS011;5009;50.656;7.188;2022-07-23T10:03:39;7.45;;;6.75;;
9940;SDS011;5009;50.656;7.188;2022-07-23T10:06:07;7.63;;;6.93;;
9940;SDS011;5009;50.656;7.188;2022-07-23T10:08:38;8.23;;;7.43;;
9940;SDS011;5009;50.656;7.188;2022-07-23T10:11:07;7.28;;;6.53;;
9940;SDS011;5009;50.656;7.188;2022-07-23T10:13:34;7.93;;;7.22;;
9940;SDS011;5009;50.656;7.188;2022-07-23T10:16:27;7.45;;;6.75;;
9940;SDS011;5009;50.656;7.188;2022-07-23T10:18:53;7.05;;;6.35;;
9940;SDS011;5009;50.656;7.188;2022-07-23T10:21:27;7.50;;;6.43;;
9940;SDS011;5009;50.656;7.188;2022-07-23T10:26:53;6.55;;;5.75;;
9940;SDS011;5009;50.656;7.188;2022-07-23T10:29:47;7.47;;;6.75;;
9940;SDS011;5009;50.656;7.188;2022-07-23T10:35:53;6.70;;;6.00;;
9940;SDS011;5009;50.656;7.188;2022-07-23T10:38:27;7.32;;;6.60;;
9940;SDS011;5009;50.656;7.188;2022-07-23T10:40:58;7.15;;;6.45;;
9940;SDS011;5009;50.656;7.188;2022-07-23T10:43:24;6.25;;;5.68;;
9940;SDS011;5009;50.656;7.188;2022-07-23T10:45:50;7.75;;;6.80;;
9940;SDS011;5009;50.656;7.188;2022-07-23T10:48:23;7.25;;;5.97;;
9940;SDS011;5009;50.656;7.188;2022-07-23T10:56:49;6.40;;;5.80;;
9940;SDS011;5009;50.656;7.188;2022-07-23T10:59:28;6.38;;;5.78;;
9940;SDS011;5009;50.656;7.188;2022-07-23T11:01:54;6.82;;;6.20;;
9940;SDS011;5009;50.656;7.188;2022-07-23T11:04:52;7.20;;;6.45;;
9940;SDS011;5009;50.656;7.188;2022-07-23T11:07:18;7.95;;;7.03;;
9940;SDS011;5009;50.656;7.188;2022-07-23T11:09:44;7.05;;;6.10;;
9940;SDS011;5009;50.656;7.188;2022-07-23T11:17:32;6.13;;;4.78;;
9940;SDS011;5009;50.656;7.188;2022-07-23T11:25:04;4.22;;;3.90;;
9940;SDS011;5009;50.656;7.188;2022-07-23T11:27:39;5.13;;;4.70;;
9940;SDS011;5009;50.656;7.188;2022-07-23T11:30:07;5.43;;;4.85;;
9940;SDS011;5009;50.656;7.188;2022-07-23T11:32:35;5.32;;;4.93;;
9940;SDS011;5009;50.656;7.188;2022-07-23T11:35:17;5.20;;;4.53;;
9940;SDS011;5009;50.656;7.188;2022-07-23T11:37:53;5.55;;;4.90;;
9940;SDS011;5009;50.656;7.188;2022-07-23T11:40:27;5.03;;;4.53;;
9940;SDS011;5009;50.656;7.188;2022-07-23T11:45:20;5.15;;;4.65;;
9940;SDS011;5009;50.656;7.188;2022-07-23T11:47:46;4.32;;;3.95;;
9940;SDS011;5009;50.656;7.188;2022-07-23T11:50:11;5.10;;;4.70;;
9940;SDS011;5009;50.656;7.188;2022-07-23T11:52:38;5.10;;;4.53;;
9940;SDS011;5009;50.656;7.188;2022-07-23T11:55:08;5.68;;;5.18;;
9940;SDS011;5009;50.656;7.188;2022-07-23T11:57:36;6.38;;;5.88;;
9940;SDS011;5009;50.656;7.188;2022-07-23T12:00:07;5.25;;;4.80;;
9940;SDS011;5009;50.656;7.188;2022-07-23T12:02:38;6.65;;;5.35;;
9940;SDS011;5009;50.656;7.188;2022-07-23T12:05:05;6.40;;;5.80;;
9940;SDS011;5009;50.656;7.188;2022-07-23T12:07:50;4.75;;;4.35;;
9940;SDS011;5009;50.656;7.188;2022-07-23T12:10:24;5.57;;;5.18;;
9940;SDS011;5009;50.656;7.188;2022-07-23T12:13:01;7.35;;;6.75;;
9940;SDS011;5009;50.656;7.188;2022-07-23T12:15:36;6.65;;;6.05;;
9940;SDS011;5009;50.656;7.188;2022-07-23T12:18:08;6.22;;;5.72;;
9940;SDS011;5009;50.656;7.188;2022-07-23T12:20:39;7.95;;;7.35;;
9940;SDS011;5009;50.656;7.188;2022-07-23T12:23:07;6.93;;;6.28;;
9940;SDS011;5009;50.656;7.188;2022-07-23T12:25:35;6.93;;;6.43;;
9940;SDS011;5009;50.656;7.188;2022-07-23T12:28:21;6.93;;;6.43;;
9940;SDS011;5009;50.656;7.188;2022-07-23T12:30:53;7.15;;;6.55;;
9940;SDS011;5009;50.656;7.188;2022-07-23T12:33:25;7.13;;;6.53;;
9940;SDS011;5009;50.656;7.188;2022-07-23T12:35:52;6.63;;;6.13;;
9940;SDS011;5009;50.656;7.188;2022-07-23T12:38:21;7.68;;;7.03;;
9940;SDS011;5009;50.656;7.188;2022-07-23T12:40:55;6.47;;;6.05;;
9940;SDS011;5009;50.656;7.188;2022-07-23T12:43:23;7.07;;;6.47;;
9940;SDS011;5009;50.656;7.188;2022-07-23T12:51:05;7.78;;;7.13;;
9940;SDS011;5009;50.656;7.188;2022-07-23T12:56:07;7.60;;;6.93;;
9940;SDS011;5009;50.656;7.188;2022-07-23T12:58:41;7.70;;;7.10;;
9940;SDS011;5009;50.656;7.188;2022-07-23T13:06:24;7.25;;;6.55;;
9940;SDS011;5009;50.656;7.188;2022-07-23T13:08:50;8.50;;;7.90;;
9940;SDS011;5009;50.656;7.188;2022-07-23T13:11:16;7.60;;;7.00;;
9940;SDS011;5009;50.656;7.188;2022-07-23T13:13:41;8.23;;;7.43;;
9940;SDS011;5009;50.656;7.188;2022-07-23T13:16:07;8.30;;;7.50;;
9940;SDS011;5009;50.656;7.188;2022-07-23T13:18:33;9.27;;;7.70;;
9940;SDS011;5009;50.656;7.188;2022-07-23T13:20:58;7.75;;;7.15;;
9940;SDS011;5009;50.656;7.188;2022-07-23T13:23:25;7.85;;;7.15;;
9940;SDS011;5009;50.656;7.188;2022-07-23T13:25:51;7.97;;;6.95;;
9940;SDS011;5009;50.656;7.188;2022-07-23T13:28:19;6.78;;;6.18;;
9940;SDS011;5009;50.656;7.188;2022-07-23T13:30:46;7.15;;;6.55;;
9940;SDS011;5009;50.656;7.188;2022-07-23T13:33:14;7.43;;;6.22;;
9940;SDS011;5009;50.656;7.188;2022-07-23T13:35:41;7.40;;;6.78;;
9940;SDS011;5009;50.656;7.188;2022-07-23T13:38:06;8.68;;;6.93;;
9940;SDS011;5009;50.656;7.188;2022-07-23T13:40:33;7.25;;;6.18;;
9940;SDS011;5009;50.656;7.188;2022-07-23T13:43:00;6.82;;;6.22;;
9940;SDS011;5009;50.656;7.188;2022-07-23T13:45:26;7.15;;;6.45;;
9940;SDS011;5009;50.656;7.188;2022-07-23T13:47:51;6.75;;;6.25;;
9940;SDS011;5009;50.656;7.188;2022-07-23T13:50:17;7.40;;;6.43;;
9940;SDS011;5009;50.656;7.188;2022-07-23T13:52:43;6.82;;;6.18;;
9940;SDS011;5009;50.656;7.188;2022-07-23T13:55:08;7.20;;;6.55;;
9940;SDS011;5009;50.656;7.188;2022-07-23T13:57:34;6.35;;;5.82;;
9940;SDS011;5009;50.656;7.188;2022-07-23T14:00:00;7.38;;;5.93;;
9940;SDS011;5009;50.656;7.188;2022-07-23T14:02:26;6.75;;;6.15;;
9940;SDS011;5009;50.656;7.188;2022-07-23T14:04:51;6.53;;;5.93;;
9940;SDS011;5009;50.656;7.188;2022-07-23T14:07:18;6.85;;;6.25;;
9940;SDS011;5009;50.656;7.188;2022-07-23T14:09:44;7.72;;;6.55;;
9940;SDS011;5009;50.656;7.188;2022-07-23T14:12:09;6.45;;;5.90;;
9940;SDS011;5009;50.656;7.188;2022-07-23T14:14:35;7.28;;;6.22;;
9940;SDS011;5009;50.656;7.188;2022-07-23T14:17:01;7.70;;;6.53;;
9940;SDS011;5009;50.656;7.188;2022-07-23T14:19:26;7.85;;;6.10;;
9940;SDS011;5009;50.656;7.188;2022-07-23T14:21:52;6.32;;;5.82;;
9940;SDS011;5009;50.656;7.188;2022-07-23T14:24:18;6.70;;;6.10;;
9940;SDS011;5009;50.656;7.188;2022-07-23T14:26:43;6.60;;;6.00;;
9940;SDS011;5009;50.656;7.188;2022-07-23T14:29:09;6.22;;;5.72;;
9940;SDS011;5009;50.656;7.188;2022-07-23T14:31:35;6.80;;;6.10;;
9940;SDS011;5009;50.656;7.188;2022-07-23T14:34:00;6.80;;;6.05;;
9940;SDS011;5009;50.656;7.188;2022-07-23T14:36:26;7.00;;;6.18;;
9940;SDS011;5009;50.656;7.188;2022-07-23T14:38:52;6.68;;;6.07;;
9940;SDS011;5009;50.656;7.188;2022-07-23T14:41:18;6.53;;;5.85;;
9940;SDS011;5009;50.656;7.188;2022-07-23T14:43:43;6.15;;;5.45;;
9940;SDS011;5009;50.656;7.188;2022-07-23T14:46:09;6.38;;;5.70;;
9940;SDS011;5009;50.656;7.188;2022-07-23T14:48:36;6.50;;;5.90;;
9940;SDS011;5009;50.656;7.188;2022-07-23T14:51:02;6.72;;;6.13;;
9940;SDS011;5009;50.656;7.188;2022-07-23T14:53:28;6.18;;;5.68;;
9940;SDS011;5009;50.656;7.188;2022-07-23T14:55:54;5.85;;;5.35;;
9940;SDS011;5009;50.656;7.188;2022-07-23T14:58:22;6.22;;;5.72;;
9940;SDS011;5009;50.656;7.188;2022-07-23T15:00:47;5.68;;;5.18;;
9940;SDS011;5009;50.656;7.188;2022-07-23T15:03:13;5.55;;;5.15;;
9940;SDS011;5009;50.656;7.188;2022-07-23T15:05:39;5.97;;;5.40;;
9940;SDS011;5009;50.656;7.188;2022-07-23T15:08:04;6.65;;;6.05;;
9940;SDS011;5009;50.656;7.188;2022-07-23T15:10:30;6.05;;;5.55;;
9940;SDS011;5009;50.656;7.188;2022-07-23T15:12:55;6.65;;;5.50;;
9940;SDS011;5009;50.656;7.188;2022-07-23T15:15:21;5.85;;;5.45;;
9940;SDS011;5009;50.656;7.188;2022-07-23T15:17:46;8.02;;;5.55;;
9940;SDS011;5009;50.656;7.188;2022-07-23T15:20:12;5.82;;;5.32;;
9940;SDS011;5009;50.656;7.188;2022-07-23T15:22:38;6.03;;;5.43;;
9940;SDS011;5009;50.656;7.188;2022-07-23T15:25:04;5.93;;;5.30;;
9940;SDS011;5009;50.656;7.188;2022-07-23T15:27:30;6.28;;;5.72;;
9940;SDS011;5009;50.656;7.188;2022-07-23T15:29:56;5.93;;;5.32;;
9940;SDS011;5009;50.656;7.188;2022-07-23T15:32:21;5.57;;;5.07;;
9940;SDS011;5009;50.656;7.188;2022-07-23T15:34:50;7.53;;;5.65;;
9940;SDS011;5009;50.656;7.188;2022-07-23T15:37:15;5.72;;;5.22;;
9940;SDS011;5009;50.656;7.188;2022-07-23T15:39:41;5.78;;;5.22;;
9940;SDS011;5009;50.656;7.188;2022-07-23T15:42:06;5.72;;;5.20;;
9940;SDS011;5009;50.656;7.188;2022-07-23T15:44:32;9.75;;;5.55;;
9940;SDS011;5009;50.656;7.188;2022-07-23T15:46:57;5.93;;;5.32;;